sensor_id;sensor_type;location;lat;lon;timestamp;pressure;altitude;pressure_sealevel;temperature;humidity
51876;BME280;34054;52.100;5.116;2022-12-26T00:00:26;100785.69;;;8.81;100.00
51876;BME280;34054;52.100;5.116;2022-12-26T00:00:59;100779.78;;;8.84;100.00
51876;BME280;34054;52.100;5.116;2022-12-26T00:01:37;100782.91;;;8.93;100.00
51876;BME280;34054;52.100;5.116;2022-12-26T00:02:12;100780.38;;;8.86;100.00
51876;BME280;34054;52.100;5.116;2022-12-26T00:02:43;100775.50;;;8.88;100.00
51876;BME280;34054;52.100;5.116;2022-12-26T00:03:15;100780.78;;;8.78;100.00
51876;BME280;34054;52.100;5.116;2022-12-26T00:03:49;100787.91;;;8.84;100.00
51876;BME280;34054;52.100;5.116;2022-12-26T00:04:21;100777.09;;;8.84;100.00
51876;BME280;34054;52.100;5.116;2022-12-26T00:04:53;100783.81;;;8.64;100.00
51876;BME280;34054;52.100;5.116;2022-12-26T00:05:26;100785.38;;;8.60;100.00
51876;BME280;34054;52.100;5.116;2022-12-26T00:05:57;100789.22;;;8.64;100.00
51876;BME280;34054;52.100;5.116;2022-12-26T00:06:30;100795.28;;;8.72;100.00
51876;BME280;34054;52.100;5.116;2022-12-26T00:07:02;100790.28;;;8.63;100.00
51876;BME280;34054;52.100;5.116;2022-12-26T00:07:34;100792.19;;;8.63;100.00
51876;BME280;34054;52.100;5.116;2022-12-26T00:08:06;100797.34;;;8.64;100.00
51876;BME280;34054;52.100;5.116;2022-12-26T00:08:38;100796.28;;;8.66;100.00
51876;BME280;34054;52.100;5.116;2022-12-26T00:09:11;100792.75;;;8.65;100.00
51876;BME280;34054;52.100;5.116;2022-12-26T00:09:42;100795.53;;;8.70;100.00
51876;BME280;34054;52.100;5.116;2022-12-26T00:10:14;100797.78;;;8.73;100.00
51876;BME280;34054;52.100;5.116;2022-12-26T00:10:47;100805.31;;;8.71;100.00
51876;BME280;34054;52.100;5.116;2022-12-26T00:11:19;100796.28;;;8.66;100.00
51876;BME280;34054;52.100;5.116;2022-12-26T00:11:51;100791.44;;;8.68;100.00
51876;BME280;34054;52.100;5.116;2022-12-26T00:12:24;100797.53;;;8.75;100.00
51876;BME280;34054;52.100;5.116;2022-12-26T00:12:55;100802.03;;;8.69;100.00
51876;BME280;34054;52.100;5.116;2022-12-26T00:13:27;100802.94;;;8.75;100.00
51876;BME280;34054;52.100;5.116;2022-12-26T00:14:01;100801.72;;;8.83;100.00
51876;BME280;34054;52.100;5.116;2022-12-26T00:14:35;100804.56;;;8.76;100.00
51876;BME280;34054;52.100;5.116;2022-12-26T00:15:07;100805.38;;;8.76;100.00
51876;BME280;34054;52.100;5.116;2022-12-26T00:15:40;100797.78;;;8.73;100.00
51876;BME280;34054;52.100;5.116;2022-12-26T00:16:14;100795.28;;;8.72;100.00
51876;BME280;34054;52.100;5.116;2022-12-26T00:16:47;100796.69;;;8.74;100.00
51876;BME280;34054;52.100;5.116;2022-12-26T00:17:19;100802.84;;;8.70;100.00
51876;BME280;34054;52.100;5.116;2022-12-26T00:17:51;100804.41;;;8.66;100.00
51876;BME280;34054;52.100;5.116;2022-12-26T00:18:23;100798.41;;;8.63;100.00
51876;BME280;34054;52.100;5.116;2022-12-26T00:18:56;100799.66;;;8.73;100.00
51876;BME280;34054;52.100;5.116;2022-12-26T00:19:28;100805.56;;;8.70;100.00
51876;BME280;34054;52.100;5.116;2022-12-26T00:20:00;100798.09;;;8.77;100.00
51876;BME280;34054;52.100;5.116;2022-12-26T00:20:31;100805.38;;;8.76;100.00
51876;BME280;34054;52.100;5.116;2022-12-26T00:21:04;100803.41;;;8.72;100.00
51876;BME280;34054;52.100;5.116;2022-12-26T00:21:37;100800.81;;;8.77;100.00
51876;BME280;34054;52.100;5.116;2022-12-26T00:22:09;100801.03;;;8.75;100.00
51876;BME280;34054;52.100;5.116;2022-12-26T00:22:41;100802.19;;;8.79;100.00
51876;BME280;34054;52.100;5.116;2022-12-26T00:23:13;100803.59;;;8.82;100.00
51876;BME280;34054;52.100;5.116;2022-12-26T00:23:45;100802.78;;;8.82;100.00
51876;BME280;34054;52.100;5.116;2022-12-26T00:24:17;100795.22;;;8.84;100.00
51876;BME280;34054;52.100;5.116;2022-12-26T00:24:50;100805.56;;;8.70;100.00
51876;BME280;34054;52.100;5.116;2022-12-26T00:25:21;100805.38;;;8.76;100.00
51876;BME280;34054;52.100;5.116;2022-12-26T00:25:53;100804.81;;;8.74;100.00
51876;BME280;34054;52.100;5.116;2022-12-26T00:26:28;100814.75;;;8.69;100.00
51876;BME280;34054;52.100;5.116;2022-12-26T00:27:02;100813.44;;;8.71;100.00
51876;BME280;34054;52.100;5.116;2022-12-26T00:27:34;100813.09;;;8.68;100.00
51876;BME280;34054;52.100;5.116;2022-12-26T00:28:05;100801.88;;;8.76;100.00
51876;BME280;34054;52.100;5.116;2022-12-26T00:28:38;100816.22;;;8.76;100.00
51876;BME280;34054;52.100;5.116;2022-12-26T00:29:10;100805.16;;;8.78;100.00
51876;BME280;34054;52.100;5.116;2022-12-26T00:29:42;100803.91;;;8.69;100.00
51876;BME280;34054;52.100;5.116;2022-12-26T00:30:14;100820.72;;;8.71;100.00
51876;BME280;34054;52.100;5.116;2022-12-26T00:30:46;100816.22;;;8.76;100.00
51876;BME280;34054;52.100;5.116;2022-12-26T00:31:19;100821.88;;;8.75;100.00
51876;BME280;34054;52.100;5.116;2022-12-26T00:31:52;100822.88;;;8.69;100.00
51876;BME280;34054;52.100;5.116;2022-12-26T00:32:25;100830.66;;;8.65;100.00
51876;BME280;34054;52.100;5.116;2022-12-26T00:32:56;100821.56;;;8.71;100.00
51876;BME280;34054;52.100;5.116;2022-12-26T00:33:28;100835.75;;;8.78;100.00
51876;BME280;34054;52.100;5.116;2022-12-26T00:34:01;100827.06;;;8.76;100.00
51876;BME280;34054;52.100;5.116;2022-12-26T00:34:34;100832.47;;;8.76;100.00
51876;BME280;34054;52.100;5.116;2022-12-26T00:35:06;100831.06;;;8.74;100.00
51876;BME280;34054;52.100;5.116;2022-12-26T00:35:38;100831.66;;;8.76;100.00
51876;BME280;34054;52.100;5.116;2022-12-26T00:36:11;100817.72;;;8.84;100.00
51876;BME280;34054;52.100;5.116;2022-12-26T00:36:45;100820.41;;;8.84;100.00
51876;BME280;34054;52.100;5.116;2022-12-26T00:37:16;100823.19;;;8.89;100.00
51876;BME280;34054;52.100;5.116;2022-12-26T00:37:48;100827.06;;;8.93;100.00
51876;BME280;34054;52.100;5.116;2022-12-26T00:38:20;100813.59;;;8.99;100.00
51876;BME280;34054;52.100;5.116;2022-12-26T00:38:52;100827.22;;;8.87;100.00
51876;BME280;34054;52.100;5.116;2022-12-26T00:39:24;100823.94;;;8.85;100.00
51876;BME280;34054;52.100;5.116;2022-12-26T00:39:56;100820.81;;;8.76;100.00
51876;BME280;34054;52.100;5.116;2022-12-26T00:40:28;100824.66;;;8.80;100.00
51876;BME280;34054;52.100;5.116;2022-12-26T00:41:00;100816.81;;;8.78;100.00
51876;BME280;34054;52.100;5.116;2022-12-26T00:41:32;100825.06;;;8.72;100.00
51876;BME280;34054;52.100;5.116;2022-12-26T00:42:05;100820.72;;;8.71;100.00
51876;BME280;34054;52.100;5.116;2022-12-26T00:42:36;100817.53;;;8.74;100.00
51876;BME280;34054;52.100;5.116;2022-12-26T00:43:08;100826.66;;;8.68;100.00
51876;BME280;34054;52.100;5.116;2022-12-26T00:43:39;100816.41;;;8.70;100.00
51876;BME280;34054;52.100;5.116;2022-12-26T00:44:12;100816.22;;;8.76;100.00
51876;BME280;34054;52.100;5.116;2022-12-26T00:44:44;100822.28;;;8.84;100.00
51876;BME280;34054;52.100;5.116;2022-12-26T00:45:15;100819.91;;;8.87;100.00
51876;BME280;34054;52.100;5.116;2022-12-26T00:45:48;100810.97;;;8.87;100.00
51876;BME280;34054;52.100;5.116;2022-12-26T00:46:19;100822.97;;;8.91;100.00
51876;BME280;34054;52.100;5.116;2022-12-26T00:46:51;100823.44;;;8.88;100.00
51876;BME280;34054;52.100;5.116;2022-12-26T00:47:23;100826.63;;;8.85;100.00
51876;BME280;34054;52.100;5.116;2022-12-26T00:47:55;100822.81;;;8.80;100.00
51876;BME280;34054;52.100;5.116;2022-12-26T00:48:27;100826.25;;;8.76;100.00
51876;BME280;34054;52.100;5.116;2022-12-26T00:49:00;100821.31;;;8.73;100.00
51876;BME280;34054;52.100;5.116;2022-12-26T00:49:34;100823.94;;;8.68;100.00
51876;BME280;34054;52.100;5.116;2022-12-26T00:50:06;100826.66;;;8.68;100.00
51876;BME280;34054;52.100;5.116;2022-12-26T00:50:38;100828.50;;;8.67;100.00
51876;BME280;34054;52.100;5.116;2022-12-26T00:51:10;100828.84;;;8.71;100.00
51876;BME280;34054;52.100;5.116;2022-12-26T00:51:42;100827.38;;;8.80;100.00
51876;BME280;34054;52.100;5.116;2022-12-26T00:52:14;100834.75;;;8.85;100.00
51876;BME280;34054;52.100;5.116;2022-12-26T00:52:45;100830.50;;;8.89;100.00
51876;BME280;34054;52.100;5.116;2022-12-26T00:53:17;100822.13;;;8.90;100.00
51876;BME280;34054;52.100;5.116;2022-12-26T00:53:50;100831.25;;;8.84;100.00
51876;BME280;34054;52.100;5.116;2022-12-26T00:54:22;100828.09;;;8.75;100.00
51876;BME280;34054;52.100;5.116;2022-12-26T00:54:54;100828.63;;;8.72;100.00
51876;BME280;34054;52.100;5.116;2022-12-26T00:55:26;100825.59;;;8.69;100.00
51876;BME280;34054;52.100;5.116;2022-12-26T00:55:57;100828.50;;;8.67;100.00
51876;BME280;34054;52.100;5.116;2022-12-26T00:56:29;100825.25;;;8.65;100.00
51876;BME280;34054;52.100;5.116;2022-12-26T00:57:02;100831.28;;;8.55;100.00
51876;BME280;34054;52.100;5.116;2022-12-26T00:57:33;100825.66;;;8.57;100.00
51876;BME280;34054;52.100;5.116;2022-12-26T00:58:05;100834.66;;;8.62;100.00
51876;BME280;34054;52.100;5.116;2022-12-26T00:58:37;100830.34;;;8.61;100.00
51876;BME280;34054;52.100;5.116;2022-12-26T00:59:11;100830.47;;;8.55;100.00
51876;BME280;34054;52.100;5.116;2022-12-26T00:59:42;100834.25;;;8.54;100.00
51876;BME280;34054;52.100;5.116;2022-12-26T01:00:15;100831.41;;;8.60;100.00
51876;BME280;34054;52.100;5.116;2022-12-26T01:00:47;100839.75;;;8.59;100.00
51876;BME280;34054;52.100;5.116;2022-12-26T01:01:21;100842.69;;;8.57;100.00
51876;BME280;34054;52.100;5.116;2022-12-26T01:01:54;100834.66;;;8.62;100.00
51876;BME280;34054;52.100;5.116;2022-12-26T01:02:25;100827.03;;;8.59;100.00
51876;BME280;34054;52.100;5.116;2022-12-26T01:03:10;100847.13;;;8.63;100.00
51876;BME280;34054;52.100;5.116;2022-12-26T01:03:43;100840.56;;;8.59;100.00
51876;BME280;34054;52.100;5.116;2022-12-26T01:04:18;100844.75;;;8.50;100.00
51876;BME280;34054;52.100;5.116;2022-12-26T01:04:50;100835.06;;;8.54;100.00
51876;BME280;34054;52.100;5.116;2022-12-26T01:05:21;100839.84;;;8.64;100.00
51876;BME280;34054;52.100;5.116;2022-12-26T01:05:53;100836.31;;;8.63;100.00
51876;BME280;34054;52.100;5.116;2022-12-26T01:06:25;100832.28;;;8.66;100.00
51876;BME280;34054;52.100;5.116;2022-12-26T01:06:57;100840.47;;;8.54;100.00
51876;BME280;34054;52.100;5.116;2022-12-26T01:07:31;100829.41;;;8.56;100.00
51876;BME280;34054;52.100;5.116;2022-12-26T01:08:05;100831.72;;;8.64;100.00
51876;BME280;34054;52.100;5.116;2022-12-26T01:08:36;100830.81;;;8.58;100.00
51876;BME280;34054;52.100;5.116;2022-12-26T01:09:08;100834.75;;;8.68;100.00
51876;BME280;34054;52.100;5.116;2022-12-26T01:09:42;100833.53;;;8.58;100.00
51876;BME280;34054;52.100;5.116;2022-12-26T01:10:13;100825.66;;;8.57;100.00
51876;BME280;34054;52.100;5.116;2022-12-26T01:10:46;100827.03;;;8.59;100.00
51876;BME280;34054;52.100;5.116;2022-12-26T01:11:18;100819.25;;;8.63;100.00
51876;BME280;34054;52.100;5.116;2022-12-26T01:12:10;100827.03;;;8.59;100.00
51876;BME280;34054;52.100;5.116;2022-12-26T01:12:41;100820.06;;;8.63;100.00
51876;BME280;34054;52.100;5.116;2022-12-26T01:13:13;100822.28;;;8.67;100.00
51876;BME280;34054;52.100;5.116;2022-12-26T01:13:46;100831.41;;;8.77;100.00
51876;BME280;34054;52.100;5.116;2022-12-26T01:14:17;100828.84;;;8.71;100.00
51876;BME280;34054;52.100;5.116;2022-12-26T01:14:50;100835.56;;;8.68;100.00
51876;BME280;34054;52.100;5.116;2022-12-26T01:15:21;100824.16;;;8.66;100.00
51876;BME280;34054;52.100;5.116;2022-12-26T01:15:53;100822.88;;;8.69;100.00
51876;BME280;34054;52.100;5.116;2022-12-26T01:16:25;100829.09;;;8.69;100.00
51876;BME280;34054;52.100;5.116;2022-12-26T01:16:57;100826.53;;;8.62;100.00
51876;BME280;34054;52.100;5.116;2022-12-26T01:17:30;100828.09;;;8.58;100.00
51876;BME280;34054;52.100;5.116;2022-12-26T01:18:02;100828.28;;;8.69;100.00
51876;BME280;34054;52.100;5.116;2022-12-26T01:18:34;100840.19;;;8.68;100.00
51876;BME280;34054;52.100;5.116;2022-12-26T01:19:08;100836.41;;;8.69;100.00
51876;BME280;34054;52.100;5.116;2022-12-26T01:19:42;100838.19;;;8.63;100.00
51876;BME280;34054;52.100;5.116;2022-12-26T01:20:13;100833.78;;;8.57;100.00
51876;BME280;34054;52.100;5.116;2022-12-26T01:20:45;100824.91;;;8.61;100.00
51876;BME280;34054;52.100;5.116;2022-12-26T01:21:18;100836.63;;;8.67;100.00
51876;BME280;34054;52.100;5.116;2022-12-26T01:21:50;100823.94;;;8.68;100.00
51876;BME280;34054;52.100;5.116;2022-12-26T01:22:22;100827.72;;;8.67;100.00
51876;BME280;34054;52.100;5.116;2022-12-26T01:22:56;100831.00;;;8.69;100.00
51876;BME280;34054;52.100;5.116;2022-12-26T01:23:27;100816.44;;;8.58;100.00
51876;BME280;34054;52.100;5.116;2022-12-26T01:23:59;100818.47;;;8.51;100.00
51876;BME280;34054;52.100;5.116;2022-12-26T01:24:32;100823.09;;;8.50;100.00
51876;BME280;34054;52.100;5.116;2022-12-26T01:25:04;100827.44;;;8.51;100.00
51876;BME280;34054;52.100;5.116;2022-12-26T01:25:38;100829.09;;;8.52;100.00
51876;BME280;34054;52.100;5.116;2022-12-26T01:26:10;100829.97;;;8.58;100.00
51876;BME280;34054;52.100;5.116;2022-12-26T01:26:42;100825.72;;;8.62;100.00
51876;BME280;34054;52.100;5.116;2022-12-26T01:27:13;100832.47;;;8.59;100.00
51876;BME280;34054;52.100;5.116;2022-12-26T01:27:45;100828.19;;;8.63;100.00
51876;BME280;34054;52.100;5.116;2022-12-26T01:28:17;100829.63;;;8.54;100.00
51876;BME280;34054;52.100;5.116;2022-12-26T01:28:50;100822.94;;;8.57;100.00
51876;BME280;34054;52.100;5.116;2022-12-26T01:29:23;100827.63;;;8.61;100.00
51876;BME280;34054;52.100;5.116;2022-12-26T01:29:56;100824.25;;;8.71;100.00
51876;BME280;34054;52.100;5.116;2022-12-26T01:30:27;100829.44;;;8.73;100.00
51876;BME280;34054;52.100;5.116;2022-12-26T01:31:03;100820.72;;;8.71;100.00
51876;BME280;34054;52.100;5.116;2022-12-26T01:31:36;100821.81;;;8.70;100.00
51876;BME280;34054;52.100;5.116;2022-12-26T01:32:08;100812.59;;;8.71;100.00
51876;BME280;34054;52.100;5.116;2022-12-26T01:32:39;100812.91;;;8.57;100.00
51876;BME280;34054;52.100;5.116;2022-12-26T01:33:12;100812.13;;;8.57;100.00
51876;BME280;34054;52.100;5.116;2022-12-26T01:33:43;100811.72;;;8.65;100.00
51876;BME280;34054;52.100;5.116;2022-12-26T01:34:15;100813.50;;;8.59;100.00
51876;BME280;34054;52.100;5.116;2022-12-26T01:34:49;100811.94;;;8.63;100.00
51876;BME280;34054;52.100;5.116;2022-12-26T01:35:22;100822.22;;;8.61;100.00
51876;BME280;34054;52.100;5.116;2022-12-26T01:35:54;100825.97;;;8.60;100.00
51876;BME280;34054;52.100;5.116;2022-12-26T01:36:27;100821.13;;;8.62;100.00
51876;BME280;34054;52.100;5.116;2022-12-26T01:36:58;100826.13;;;8.54;100.00
51876;BME280;34054;52.100;5.116;2022-12-26T01:37:30;100818.81;;;8.54;100.00
51876;BME280;34054;52.100;5.116;2022-12-26T01:38:02;100819.31;;;8.51;100.00
51876;BME280;34054;52.100;5.116;2022-12-26T01:38:34;100829.41;;;8.56;100.00
51876;BME280;34054;52.100;5.116;2022-12-26T01:39:06;100823.81;;;8.62;100.00
51876;BME280;34054;52.100;5.116;2022-12-26T01:39:38;100831.66;;;8.76;100.00
51876;BME280;34054;52.100;5.116;2022-12-26T01:40:11;100829.09;;;8.69;100.00
51876;BME280;34054;52.100;5.116;2022-12-26T01:40:43;100835.75;;;8.61;100.00
51876;BME280;34054;52.100;5.116;2022-12-26T01:41:14;100828.34;;;8.57;100.00
51876;BME280;34054;52.100;5.116;2022-12-26T01:41:53;100831.47;;;8.66;100.00
51876;BME280;34054;52.100;5.116;2022-12-26T01:42:25;100820.97;;;8.69;100.00
51876;BME280;34054;52.100;5.116;2022-12-26T01:42:57;100824.84;;;8.73;100.00
51876;BME280;34054;52.100;5.116;2022-12-26T01:43:46;100824.22;;;8.54;100.00
51876;BME280;34054;52.100;5.116;2022-12-26T01:45:52;100827.72;;;8.67;100.00
51876;BME280;34054;52.100;5.116;2022-12-26T01:46:27;100817.88;;;8.60;100.00
51876;BME280;34054;52.100;5.116;2022-12-26T01:47:01;100826.66;;;8.68;100.00
51876;BME280;34054;52.100;5.116;2022-12-26T01:47:39;100827.22;;;8.70;100.00
51876;BME280;34054;52.100;5.116;2022-12-26T01:48:18;100823.34;;;8.66;100.00
51876;BME280;34054;52.100;5.116;2022-12-26T01:48:54;100822.47;;;8.77;100.00
51876;BME280;34054;52.100;5.116;2022-12-26T01:49:31;100828.44;;;8.79;100.00
51876;BME280;34054;52.100;5.116;2022-12-26T01:50:18;100827.63;;;8.78;100.00
51876;BME280;34054;52.100;5.116;2022-12-26T01:50:59;100827.06;;;8.76;100.00
51876;BME280;34054;52.100;5.116;2022-12-26T01:51:37;100831.16;;;8.79;100.00
51876;BME280;34054;52.100;5.116;2022-12-26T01:52:14;100831.16;;;8.79;100.00
51876;BME280;34054;52.100;5.116;2022-12-26T01:52:52;100831.72;;;8.81;100.00
51876;BME280;34054;52.100;5.116;2022-12-26T01:53:33;100828.38;;;8.74;100.00
51876;BME280;34054;52.100;5.116;2022-12-26T01:54:09;100830.09;;;8.80;100.00
51876;BME280;34054;52.100;5.116;2022-12-26T01:54:47;100829.13;;;8.86;100.00
51876;BME280;34054;52.100;5.116;2022-12-26T01:55:22;100828.88;;;8.88;100.00
51876;BME280;34054;52.100;5.116;2022-12-26T01:55:58;100827.31;;;8.75;100.00
51876;BME280;34054;52.100;5.116;2022-12-26T01:56:40;100832.91;;;8.85;100.00
51876;BME280;34054;52.100;5.116;2022-12-26T01:57:16;100828.44;;;8.79;100.00
51876;BME280;34054;52.100;5.116;2022-12-26T01:57:57;100829.28;;;8.79;100.00
51876;BME280;34054;52.100;5.116;2022-12-26T01:58:39;100827.31;;;8.75;100.00
51876;BME280;34054;52.100;5.116;2022-12-26T01:59:17;100825.31;;;8.70;100.00
51876;BME280;34054;52.100;5.116;2022-12-26T01:59:52;100828.69;;;8.60;100.00
51876;BME280;34054;52.100;5.116;2022-12-26T02:00:30;100831.28;;;8.55;100.00
51876;BME280;34054;52.100;5.116;2022-12-26T02:01:04;100824.41;;;8.64;100.00
51876;BME280;34054;52.100;5.116;2022-12-26T02:01:40;100832.66;;;8.70;100.00
51876;BME280;34054;52.100;5.116;2022-12-26T02:02:16;100829.34;;;8.68;100.00
51876;BME280;34054;52.100;5.116;2022-12-26T02:02:49;100840.75;;;8.70;100.00
51876;BME280;34054;52.100;5.116;2022-12-26T02:03:43;100828.84;;;8.54;100.00
51876;BME280;34054;52.100;5.116;2022-12-26T02:04:37;100831.47;;;8.66;100.00
51876;BME280;34054;52.100;5.116;2022-12-26T02:05:34;100831.47;;;8.66;100.00
51876;BME280;34054;52.100;5.116;2022-12-26T02:06:07;100825.31;;;8.70;100.00
51876;BME280;34054;52.100;5.116;2022-12-26T02:06:43;100832.47;;;8.76;100.00
51876;BME280;34054;52.100;5.116;2022-12-26T02:07:14;100831.00;;;8.69;100.00
51876;BME280;34054;52.100;5.116;2022-12-26T02:07:46;100822.88;;;8.69;100.00
51876;BME280;34054;52.100;5.116;2022-12-26T02:08:21;100822.78;;;8.63;100.00
51876;BME280;34054;52.100;5.116;2022-12-26T02:08:57;100825.47;;;8.63;100.00
51876;BME280;34054;52.100;5.116;2022-12-26T02:09:29;100820.91;;;8.64;100.00
51876;BME280;34054;52.100;5.116;2022-12-26T02:10:04;100823.09;;;8.67;100.00
51876;BME280;34054;52.100;5.116;2022-12-26T02:10:45;100814.66;;;8.63;100.00
51876;BME280;34054;52.100;5.116;2022-12-26T02:11:23;100821.13;;;8.62;100.00
51876;BME280;34054;52.100;5.116;2022-12-26T02:12:06;100825.47;;;8.63;100.00
51876;BME280;34054;52.100;5.116;2022-12-26T02:12:43;100821.84;;;8.58;100.00
51876;BME280;34054;52.100;5.116;2022-12-26T02:13:16;100820.97;;;8.52;100.00
51876;BME280;34054;52.100;5.116;2022-12-26T02:13:50;100809.16;;;8.58;100.00
51876;BME280;34054;52.100;5.116;2022-12-26T02:14:22;100815.22;;;8.66;100.00
51876;BME280;34054;52.100;5.116;2022-12-26T02:14:55;100821.44;;;8.66;100.00
51876;BME280;34054;52.100;5.116;2022-12-26T02:15:28;100818.59;;;8.56;100.00
51876;BME280;34054;52.100;5.116;2022-12-26T02:16:02;100807.69;;;8.68;100.00
51876;BME280;34054;52.100;5.116;2022-12-26T02:16:36;100814.41;;;8.65;100.00
51876;BME280;34054;52.100;5.116;2022-12-26T02:17:10;100811.13;;;8.63;100.00
51876;BME280;34054;52.100;5.116;2022-12-26T02:17:43;100818.53;;;8.68;100.00
51876;BME280;34054;52.100;5.116;2022-12-26T02:18:15;100799.13;;;8.59;100.00
51876;BME280;34054;52.100;5.116;2022-12-26T02:18:46;100813.44;;;8.71;100.00
51876;BME280;34054;52.100;5.116;2022-12-26T02:19:26;100816.72;;;8.73;100.00
51876;BME280;34054;52.100;5.116;2022-12-26T02:20:12;100812.28;;;8.67;100.00
51876;BME280;34054;52.100;5.116;2022-12-26T02:20:57;100813.69;;;8.70;100.00
51876;BME280;34054;52.100;5.116;2022-12-26T02:22:09;100810.88;;;8.64;100.00
51876;BME280;34054;52.100;5.116;2022-12-26T02:23:32;100814.50;;;8.70;100.00
51876;BME280;34054;52.100;5.116;2022-12-26T02:24:49;100819.25;;;8.80;100.00
51876;BME280;34054;52.100;5.116;2022-12-26T02:26:05;100809.88;;;8.71;100.00
51876;BME280;34054;52.100;5.116;2022-12-26T02:27:07;100806.13;;;8.72;100.00
51876;BME280;34054;52.100;5.116;2022-12-26T02:28:11;100806.69;;;8.74;100.00
51876;BME280;34054;52.100;5.116;2022-12-26T02:30:39;100809.41;;;8.74;100.00
51876;BME280;34054;52.100;5.116;2022-12-26T02:31:24;100811.78;;;8.70;100.00
51876;BME280;34054;52.100;5.116;2022-12-26T02:32:08;100801.50;;;8.55;100.00
51876;BME280;34054;52.100;5.116;2022-12-26T02:33:15;100805.88;;;8.56;100.00
51876;BME280;34054;52.100;5.116;2022-12-26T02:34:10;100804.19;;;8.38;100.00
51876;BME280;34054;52.100;5.116;2022-12-26T02:34:56;100808.50;;;8.51;100.00
51876;BME280;34054;52.100;5.116;2022-12-26T02:35:48;100807.09;;;8.66;100.00
51876;BME280;34054;52.100;5.116;2022-12-26T02:37:00;100800.31;;;8.63;100.00
51876;BME280;34054;52.100;5.116;2022-12-26T02:37:50;100803.41;;;8.72;100.00
51876;BME280;34054;52.100;5.116;2022-12-26T02:38:36;100797.59;;;8.63;100.00
51876;BME280;34054;52.100;5.116;2022-12-26T02:39:27;100804.72;;;8.52;100.00
51876;BME280;34054;52.100;5.116;2022-12-26T02:40:24;100799.78;;;8.49;100.00
51876;BME280;34054;52.100;5.116;2022-12-26T02:41:15;100806.84;;;8.67;100.00
51876;BME280;34054;52.100;5.116;2022-12-26T02:42:02;100805.06;;;8.73;100.00
51876;BME280;34054;52.100;5.116;2022-12-26T02:42:56;100810.63;;;8.66;100.00
51876;BME280;34054;52.100;5.116;2022-12-26T02:43:34;100809.34;;;8.69;100.00
51876;BME280;34054;52.100;5.116;2022-12-26T02:44:16;100812.13;;;8.74;100.00
51876;BME280;34054;52.100;5.116;2022-12-26T02:45:16;100813.44;;;8.71;100.00
51876;BME280;34054;52.100;5.116;2022-12-26T02:46:19;100810.63;;;8.66;100.00
51876;BME280;34054;52.100;5.116;2022-12-26T02:47:22;100803.78;;;8.46;100.00
51876;BME280;34054;52.100;5.116;2022-12-26T02:48:05;100818.03;;;8.42;100.00
51876;BME280;34054;52.100;5.116;2022-12-26T02:48:46;100799.09;;;8.42;100.00
51876;BME280;34054;52.100;5.116;2022-12-26T02:49:35;100805.78;;;8.51;100.00
51876;BME280;34054;52.100;5.116;2022-12-26T02:50:45;100817.75;;;8.55;100.00
51876;BME280;34054;52.100;5.116;2022-12-26T02:51:52;100815.34;;;8.42;100.00
51876;BME280;34054;52.100;5.116;2022-12-26T02:52:56;100814.81;;;8.45;100.00
51876;BME280;34054;52.100;5.116;2022-12-26T02:54:01;100804.94;;;8.51;100.00
51876;BME280;34054;52.100;5.116;2022-12-26T02:55:04;100805.97;;;8.61;100.00
51876;BME280;34054;52.100;5.116;2022-12-26T02:55:59;100811.13;;;8.63;100.00
51876;BME280;34054;52.100;5.116;2022-12-26T02:57:03;100811.03;;;8.58;100.00
51876;BME280;34054;52.100;5.116;2022-12-26T02:58:01;100815.47;;;8.64;100.00
51876;BME280;34054;52.100;5.116;2022-12-26T02:59:13;100804.94;;;8.51;100.00
51876;BME280;34054;52.100;5.116;2022-12-26T03:00:13;100816.84;;;8.49;100.00
51876;BME280;34054;52.100;5.116;2022-12-26T03:01:26;100810.69;;;8.54;100.00
51876;BME280;34054;52.100;5.116;2022-12-26T03:02:25;100817.19;;;8.41;100.00
51876;BME280;34054;52.100;5.116;2022-12-26T03:03:24;100806.34;;;8.53;100.00
51876;BME280;34054;52.100;5.116;2022-12-26T03:04:20;100812.66;;;8.59;100.00
51876;BME280;34054;52.100;5.116;2022-12-26T03:05:17;100805.38;;;8.59;100.00
51876;BME280;34054;52.100;5.116;2022-12-26T03:06:16;100811.94;;;8.63;100.00
51876;BME280;34054;52.100;5.116;2022-12-26T03:07:14;100800.94;;;8.53;100.00
51876;BME280;34054;52.100;5.116;2022-12-26T03:08:11;100806.84;;;8.50;100.00
51876;BME280;34054;52.100;5.116;2022-12-26T03:09:11;100813.31;;;8.49;100.00
51876;BME280;34054;52.100;5.116;2022-12-26T03:10:08;100807.66;;;8.51;100.00
51876;BME280;34054;52.100;5.116;2022-12-26T03:11:05;100806.69;;;8.57;100.00
51876;BME280;34054;52.100;5.116;2022-12-26T03:11:59;100806.69;;;8.57;100.00
51876;BME280;34054;52.100;5.116;2022-12-26T03:12:55;100822.44;;;8.60;100.00
51876;BME280;34054;52.100;5.116;2022-12-26T03:13:48;100802.09;;;8.57;100.00
51876;BME280;34054;52.100;5.116;2022-12-26T03:14:23;100805.72;;;8.63;100.00
51876;BME280;34054;52.100;5.116;2022-12-26T03:15:00;100818.53;;;8.68;100.00
51876;BME280;34054;52.100;5.116;2022-12-26T03:15:38;100804.47;;;8.54;100.00
51876;BME280;34054;52.100;5.116;2022-12-26T03:16:35;100814.25;;;8.55;100.00
51876;BME280;34054;52.100;5.116;2022-12-26T03:17:28;100817.88;;;8.60;100.00
51876;BME280;34054;52.100;5.116;2022-12-26T03:18:05;100815.72;;;8.62;100.00
51876;BME280;34054;52.100;5.116;2022-12-26T03:18:42;100816.81;;;8.61;100.00
51876;BME280;34054;52.100;5.116;2022-12-26T03:19:18;100813.56;;;8.47;100.00
51876;BME280;34054;52.100;5.116;2022-12-26T03:19:55;100808.50;;;8.51;100.00
51876;BME280;34054;52.100;5.116;2022-12-26T03:20:33;100811.38;;;8.61;100.00
51876;BME280;34054;52.100;5.116;2022-12-26T03:21:11;100808.75;;;8.67;100.00
51876;BME280;34054;52.100;5.116;2022-12-26T03:21:46;100818.59;;;8.56;100.00
51876;BME280;34054;52.100;5.116;2022-12-26T03:22:18;100818.41;;;8.62;100.00